Time;durP1;ratioP1;P1;durP2;ratioP2;P2;SDS_P1;SDS_P2;PMS_P1;PMS_P2;Temp;Humidity;BMP_temperature;BMP_pressure;BME280_temperature;BME280_humidity;BME280_pressure;Samples;Min_cycle;Max_cycle;Signal;HPM_P1;HPM_P2
2023/10/31 00:00:39;;;;;;;18.15;11.27;;;;;;;9.63;100.00;99627.38;6281094;22;19995;-96
2023/10/31 00:03:19;;;;;;;20.20;11.88;;;;;;;9.69;100.00;99628.31;6282365;22;20011;-96
2023/10/31 00:05:50;;;;;;;;;;;;;;;9.66;100.00;99632.59;6282693;22;20011;-96
2023/10/31 00:11:33;;;;;;;17.52;8.77;;;;;;;9.70;100.00;99635.25;6272472;22;20378;-96
2023/10/31 00:14:02;;;;;;;15.90;8.43;;;;;;;9.65;100.00;99646.50;6280407;22;20447;-96
2023/10/31 00:16:33;;;;;;;12.65;6.70;;;;;;;9.61;100.00;99647.31;6281060;22;20003;-96
2023/10/31 00:19:01;;;;;;;15.70;7.05;;;;;;;9.57;100.00;99647.28;6279503;22;19999;-96
2023/10/31 00:21:34;;;;;;;11.45;6.80;;;;;;;9.53;100.00;99650.72;6280666;22;20014;-96
2023/10/31 00:24:03;;;;;;;13.48;6.78;;;;;;;9.49;100.00;99654.16;6282102;22;19999;-96
2023/10/31 00:26:30;;;;;;;10.68;6.05;;;;;;;9.48;100.00;99659.34;6284139;22;20005;-96
2023/10/31 00:28:59;;;;;;;10.82;6.13;;;;;;;9.43;100.00;99651.50;6283772;22;20085;-96
2023/10/31 00:31:29;;;;;;;10.23;4.93;;;;;;;9.43;100.00;99651.50;6286836;22;20074;-96
2023/10/31 00:34:02;;;;;;;10.63;4.70;;;;;;;9.43;100.00;99655.81;6287765;22;20003;-96
2023/10/31 00:36:34;;;;;;;8.57;4.75;;;;;;;9.43;100.00;99648.00;6285874;22;20007;-96
2023/10/31 00:39:05;;;;;;;9.48;4.10;;;;;;;9.40;100.00;99656.69;6284638;22;20003;-96
2023/10/31 00:41:41;;;;;;;10.63;4.75;;;;;;;9.41;100.00;99655.81;6286413;22;20007;-96
2023/10/31 00:44:16;;;;;;;7.95;3.92;;;;;;;9.40;100.00;99657.53;6287189;22;20000;-96
2023/10/31 00:46:48;;;;;;;8.70;3.80;;;;;;;9.39;100.00;99653.19;6283948;22;20003;-96
2023/10/31 00:49:16;;;;;;;8.20;3.72;;;;;;;9.37;100.00;99662.72;6285164;22;20049;-96
2023/10/31 00:51:44;;;;;;;7.78;4.65;;;;;;;9.39;100.00;99675.72;6283928;22;20003;-96
2023/10/31 00:54:13;;;;;;;8.43;4.53;;;;;;;9.40;100.00;99672.28;6285877;22;19995;-96
2023/10/31 00:57:03;;;;;;;8.88;3.88;;;;;;;9.44;100.00;99678.38;6285089;22;20322;-96
2023/10/31 00:59:58;;;;;;;7.07;4.00;;;;;;;9.43;100.00;99681.81;6285061;22;20003;-96
2023/10/31 01:02:27;;;;;;;10.75;4.38;;;;;;;9.45;100.00;99685.31;6287452;22;20011;-96
2023/10/31 01:05:28;;;;;;;7.72;4.10;;;;;;;9.48;100.00;99682.75;6284463;22;20056;-96
2023/10/31 01:07:54;;;;;;;6.57;3.55;;;;;;;9.47;100.00;99688.78;6273142;22;20023;-96
2023/10/31 01:10:32;;;;;;;8.98;3.83;;;;;;;9.48;100.00;99693.13;6282532;22;20003;-96
2023/10/31 01:13:00;;;;;;;8.68;4.45;;;;;;;9.47;100.00;99700.09;6282543;22;20003;-96
2023/10/31 01:15:37;;;;;;;9.13;4.18;;;;;;;9.47;100.00;99694.88;6284525;22;20087;-96
2023/10/31 01:18:03;;;;;;;11.57;5.78;;;;;;;9.47;100.00;99700.09;6282511;22;20004;-96
2023/10/31 01:20:40;;;;;;;13.27;5.70;;;;;;;9.48;100.00;99706.16;6281758;22;20004;-96
2023/10/31 01:23:12;;;;;;;13.57;7.40;;;;;;;9.50;100.00;99704.41;6282274;22;20096;-96
2023/10/31 01:26:04;;;;;;;17.58;7.72;;;;;;;9.51;100.00;99709.63;6284012;22;20008;-96
2023/10/31 01:29:13;;;;;;;17.25;8.32;;;;;;;9.51;100.00;99701.81;6280152;22;20019;-96
2023/10/31 01:31:49;;;;;;;19.00;9.70;;;;;;;9.50;100.00;99705.31;6286176;22;20003;-96
2023/10/31 01:37:13;;;;;;;24.45;11.70;;;;;;;9.50;100.00;99699.22;6251733;22;20004;-96
2023/10/31 01:39:44;;;;;;;26.35;12.90;;;;;;;9.51;100.00;99700.97;6284780;22;20019;-96
2023/10/31 01:42:19;;;;;;;26.45;13.35;;;;;;;9.50;100.00;99704.41;6284904;22;20061;-96
2023/10/31 01:44:58;;;;;;;;;;;;;;;;;;;;;
2023/10/31 01:47:33;;;;;;;27.17;14.07;;;;;;;9.51;100.00;99707.03;6290196;22;20042;-96
2023/10/31 01:50:01;;;;;;;27.63;14.60;;;;;;;9.49;100.00;99703.56;6285949;22;20007;-96
2023/10/31 01:52:35;;;;;;;28.37;14.30;;;;;;;9.52;100.00;99698.38;6284802;22;20087;-96
2023/10/31 01:55:02;;;;;;;30.38;15.07;;;;;;;9.53;100.00;99701.84;6287266;22;20730;-96
2023/10/31 01:57:46;;;;;;;31.08;17.02;;;;;;;9.52;100.00;99692.31;6287782;22;20004;-96
2023/10/31 02:00:21;;;;;;;35.97;17.88;;;;;;;9.53;100.00;99694.94;6287060;22;20037;-96
2023/10/31 02:02:54;;;;;;;35.72;18.17;;;;;;;9.54;100.00;99711.38;6290631;22;20007;-96
2023/10/31 02:05:22;;;;;;;36.88;18.08;;;;;;;9.53;100.00;99705.34;6288657;22;20453;-96
2023/10/31 02:08:00;;;;;;;37.15;18.25;;;;;;;9.52;100.00;99713.97;6288683;22;20023;-96
2023/10/31 02:10:51;;;;;;;36.33;17.58;;;;;;;9.56;100.00;99718.34;6287208;22;20019;-96
2023/10/31 02:13:29;;;;;;;35.88;18.30;;;;;;;9.52;100.00;99721.78;6291369;22;20007;-96
2023/10/31 02:16:03;;;;;;;37.75;19.27;;;;;;;9.52;100.00;99713.13;6289277;22;20003;-96
2023/10/31 02:18:52;;;;;;;;;;;;;;;;;;;;;
2023/10/31 02:21:35;;;;;;;37.95;18.70;;;;;;;9.57;100.00;99721.81;6292296;22;20034;-96
2023/10/31 02:24:02;;;;;;;38.22;19.88;;;;;;;9.53;100.00;99710.53;6295301;22;20003;-96
2023/10/31 02:26:53;;;;;;;34.70;16.30;;;;;;;9.60;100.00;99710.59;6295001;22;20063;-96
2023/10/31 02:29:24;;;;;;;38.72;19.10;;;;;;;9.57;100.00;99704.50;6291497;22;20012;-96
2023/10/31 02:32:02;;;;;;;39.67;19.48;;;;;;;9.60;100.00;99710.59;6289723;22;20345;-96
2023/10/31 02:37:42;;;;;;;38.92;19.08;;;;;;;9.63;100.00;99718.41;6273529;22;20008;-96
2023/10/31 02:40:21;;;;;;;42.72;21.38;;;;;;;9.65;100.00;99724.50;6290558;22;19999;-96
2023/10/31 02:42:57;;;;;;;40.60;19.92;;;;;;;9.63;100.00;99721.00;6290080;22;20035;-96
2023/10/31 02:45:32;;;;;;;42.22;20.35;;;;;;;9.66;100.00;99727.13;6289826;22;20000;-96
2023/10/31 02:48:01;;;;;;;41.72;20.77;;;;;;;9.67;100.00;99725.38;6291726;22;20032;-96
2023/10/31 02:50:32;;;;;;;38.00;19.53;;;;;;;9.67;100.00;99730.59;6291519;22;20056;-96
2023/10/31 02:53:02;;;;;;;39.28;18.85;;;;;;;9.68;100.00;99728.00;6288925;22;20000;-96
2023/10/31 02:55:31;;;;;;;40.80;20.38;;;;;;;9.68;100.00;99730.59;6286438;22;20090;-96
2023/10/31 02:58:02;;;;;;;46.85;23.75;;;;;;;9.68;100.00;99734.94;6290981;22;20004;-96
2023/10/31 03:00:49;;;;;;;44.60;22.67;;;;;;;9.67;100.00;99739.25;6290292;22;20430;-96
2023/10/31 03:03:24;;;;;;;47.10;21.15;;;;;;;9.69;100.00;99734.94;6291975;22;20023;-96
2023/10/31 03:06:02;;;;;;;43.50;20.58;;;;;;;9.70;100.00;99746.22;6291517;22;20012;-96
2023/10/31 03:08:35;;;;;;;41.45;20.63;;;;;;;9.77;100.00;99737.63;6293830;22;20026;-96
2023/10/31 03:11:29;;;;;;;44.78;22.65;;;;;;;9.72;100.00;99757.53;6293156;22;20035;-96
2023/10/31 03:14:03;;;;;;;42.22;21.92;;;;;;;9.76;100.00;99751.47;6294298;22;20003;-96
2023/10/31 03:19:28;;;;;;;44.90;21.50;;;;;;;9.75;100.00;99757.56;6292884;22;20041;-96
2023/10/31 03:21:59;;;;;;;46.53;23.00;;;;;;;9.71;100.00;99769.63;6292570;22;20027;-96
2023/10/31 03:24:52;;;;;;;44.58;22.80;;;;;;;9.73;100.00;99767.06;6295357;22;20023;-96
2023/10/31 03:27:38;;;;;;;46.67;23.17;;;;;;;9.74;100.00;99779.22;6298050;22;20003;-96
2023/10/31 03:30:07;;;;;;;43.42;20.58;;;;;;;9.74;100.00;99781.81;6296747;22;20003;-96
2023/10/31 03:35:47;;;;;;;45.72;22.13;;;;;;;9.78;100.00;99777.53;6294101;22;19947;-96
2023/10/31 03:38:13;;;;;;;48.00;22.95;;;;;;;9.70;100.00;99783.53;6288814;22;20030;-96
2023/10/31 03:40:48;;;;;;;49.42;24.05;;;;;;;9.70;100.00;99775.72;6288885;22;20094;-96
2023/10/31 03:43:52;;;;;;;52.38;23.52;;;;;;;9.73;100.00;99785.25;6293146;22;20059;-96
2023/10/31 03:46:29;;;;;;;50.92;23.98;;;;;;;9.71;100.00;99789.59;6291885;22;20082;-96
2023/10/31 03:49:01;;;;;;;49.03;22.45;;;;;;;9.73;100.00;99785.25;6294759;22;20055;-96
2023/10/31 03:51:54;;;;;;;49.85;23.45;;;;;;;9.76;100.00;99795.69;6292475;22;20010;-96
2023/10/31 03:54:46;;;;;;;50.25;24.30;;;;;;;9.73;100.00;99804.38;6291827;22;20076;-96
2023/10/31 03:57:17;;;;;;;42.13;19.27;;;;;;;9.76;100.00;99808.69;6290558;22;20011;-96
2023/10/31 03:59:54;;;;;;;50.55;24.40;;;;;;;9.70;100.00;99806.94;6290751;22;20079;-96
2023/10/31 04:02:30;;;;;;;52.50;24.92;;;;;;;9.73;100.00;99814.78;6292785;22;20008;-96
2023/10/31 04:05:04;;;;;;;53.17;25.17;;;;;;;9.68;100.00;99813.84;6289591;22;20019;-96
2023/10/31 04:07:48;;;;;;;53.78;26.33;;;;;;;9.71;100.00;99818.19;6293953;22;20018;-96
2023/10/31 04:10:28;;;;;;;49.95;23.80;;;;;;;9.70;100.00;99825.16;6324267;22;20063;-96
2023/10/31 04:13:01;;;;;;;54.45;26.40;;;;;;;9.70;100.00;99826.84;6297287;22;20007;-96
2023/10/31 04:15:34;;;;;;;51.10;23.58;;;;;;;9.70;100.00;99825.16;6297743;22;20014;-96
2023/10/31 04:18:06;;;;;;;52.50;24.90;;;;;;;9.70;100.00;99824.25;6259056;23;20055;-96
2023/10/31 04:20:51;;;;;;;48.60;23.73;;;;;;;9.74;100.00;99833.84;6258568;23;20004;-96
2023/10/31 04:23:28;;;;;;;46.58;23.50;;;;;;;9.72;100.00;99835.56;6252101;22;20000;-96
2023/10/31 04:26:03;;;;;;;49.05;23.35;;;;;;;9.71;100.00;99837.28;6256559;23;20012;-96
2023/10/31 04:28:37;;;;;;;49.25;23.25;;;;;;;9.69;100.00;99846.81;6259811;23;20076;-96
2023/10/31 04:31:03;;;;;;;48.28;24.08;;;;;;;9.72;100.00;99852.03;6261400;23;20101;-96
2023/10/31 04:34:05;;;;;;;44.55;22.35;;;;;;;9.67;100.00;99848.50;6259489;23;20068;-96
2023/10/31 04:36:36;;;;;;;44.58;21.85;;;;;;;9.65;100.00;99849.34;6259614;23;20008;-96
2023/10/31 04:39:01;;;;;;;40.45;20.42;;;;;;;9.73;100.00;99847.69;6258996;23;20011;-96
2023/10/31 04:41:32;;;;;;;42.78;22.67;;;;;;;9.70;100.00;99847.66;6261744;22;20003;-96
2023/10/31 04:44:01;;;;;;;44.15;21.15;;;;;;;9.66;100.00;99851.09;6297052;22;20028;-96
2023/10/31 04:46:52;;;;;;;39.67;20.02;;;;;;;9.70;100.00;99855.47;6296625;22;20007;-96
2023/10/31 04:49:58;;;;;;;40.65;20.45;;;;;;;9.63;100.00;99864.06;6258271;23;20011;-96
2023/10/31 04:52:32;;;;;;;43.03;21.40;;;;;;;9.64;100.00;99868.41;6233052;23;20027;-96
2023/10/31 04:55:03;;;;;;;41.20;20.75;;;;;;;9.58;100.00;99875.28;6257018;23;20036;-96
2023/10/31 04:57:49;;;;;;;43.97;22.15;;;;;;;9.58;100.00;99874.41;6253125;23;20092;-96
2023/10/31 05:00:22;;;;;;;34.55;17.17;;;;;;;9.68;100.00;99891.00;6255749;23;20004;-96
2023/10/31 05:02:56;;;;;;;35.85;18.17;;;;;;;9.61;100.00;99873.59;6251887;23;20000;-96
2023/10/31 05:05:42;;;;;;;30.88;16.45;;;;;;;9.57;100.00;99876.16;6254731;23;20008;-96
2023/10/31 05:11:29;;;;;;;29.73;14.38;;;;;;;9.59;100.00;99881.38;6252588;23;20012;-96
2023/10/31 05:14:01;;;;;;;31.88;15.80;;;;;;;9.52;100.00;99882.16;6278383;22;19999;-96
2023/10/31 05:16:44;;;;;;;32.75;17.48;;;;;;;9.50;100.00;99887.31;6295443;22;20003;-96
2023/10/31 05:19:28;;;;;;;30.90;16.33;;;;;;;9.48;100.00;99877.75;6292543;22;20429;-96
2023/10/31 05:22:01;;;;;;;35.60;17.50;;;;;;;9.52;100.00;99875.22;6315608;22;20003;-96
2023/10/31 05:24:33;;;;;;;36.95;18.42;;;;;;;9.47;100.00;99881.19;6291288;22;20468;-96
2023/10/31 05:27:01;;;;;;;38.92;19.58;;;;;;;9.48;100.00;99878.63;6288195;22;20039;-96
2023/10/31 05:29:30;;;;;;;36.67;19.90;;;;;;;9.48;100.00;99869.97;6290091;22;20003;-96
2023/10/31 05:31:58;;;;;;;37.72;18.70;;;;;;;9.48;100.00;99873.41;6285079;22;20031;-96
2023/10/31 05:34:36;;;;;;;38.30;20.23;;;;;;;9.49;100.00;99874.31;6287845;22;19999;-96
2023/10/31 05:37:01;;;;;;;38.25;19.25;;;;;;;9.48;100.00;99885.56;6287203;22;20501;-96
2023/10/31 05:39:36;;;;;;;33.90;18.77;;;;;;;9.47;100.00;99886.41;6288329;22;20014;-96
2023/10/31 05:42:05;;;;;;;32.65;17.83;;;;;;;9.48;100.00;99891.63;6290660;22;20007;-96
2023/10/31 05:44:42;;;;;;;;;;;;;;;;;;;;;
2023/10/31 05:47:37;;;;;;;33.30;17.92;;;;;;;9.51;100.00;99915.06;6318142;22;20030;-96
2023/10/31 05:50:02;;;;;;;31.80;17.80;;;;;;;9.49;100.00;99916.78;6287816;22;20011;-96
2023/10/31 05:52:37;;;;;;;33.08;17.95;;;;;;;9.47;100.00;99917.59;6291151;22;20137;-96
2023/10/31 05:55:03;;;;;;;34.05;18.80;;;;;;;9.45;100.00;99921.94;6290314;22;19999;-96
2023/10/31 05:57:42;;;;;;;33.22;18.50;;;;;;;9.47;100.00;99917.59;6291382;22;20013;-96
2023/10/31 06:00:27;;;;;;;32.63;18.13;;;;;;;9.46;100.00;99928.84;6317161;22;20003;-96
2023/10/31 06:03:02;;;;;;;33.22;17.52;;;;;;;9.40;100.00;99929.66;6289607;22;20007;-96
2023/10/31 06:05:39;;;;;;;28.67;15.90;;;;;;;9.41;100.00;99934.00;6294574;22;20010;-96
2023/10/31 06:08:24;;;;;;;31.50;17.27;;;;;;;9.39;100.00;99946.97;6292585;22;20027;-96
2023/10/31 06:11:01;;;;;;;28.38;15.45;;;;;;;9.38;100.00;99944.34;6294356;22;20025;-96
2023/10/31 06:13:50;;;;;;;;;;;;;;;;;;;;;
2023/10/31 06:16:29;;;;;;;29.55;16.02;;;;;;;9.31;100.00;99946.00;6318483;22;20042;-96
2023/10/31 06:19:03;;;;;;;27.88;14.88;;;;;;;9.29;100.00;99952.03;6289581;22;20006;-96
2023/10/31 06:21:32;;;;;;;25.77;15.23;;;;;;;9.26;100.00;99957.19;6285923;22;20056;-96
2023/10/31 06:24:00;;;;;;;24.65;13.60;;;;;;;9.24;100.00;99962.38;6286883;22;19999;-96
2023/10/31 06:26:34;;;;;;;26.98;14.70;;;;;;;9.16;100.00;99964.84;6289597;22;20003;-96
2023/10/31 06:29:02;;;;;;;27.60;14.82;;;;;;;9.14;100.00;99969.16;6288968;22;20065;-96
2023/10/31 06:31:36;;;;;;;32.15;15.85;;;;;;;9.14;100.00;99986.44;6291299;22;20011;-96
2023/10/31 06:34:02;;;;;;;29.17;16.27;;;;;;;9.11;100.00;99982.09;6289964;22;20021;-96
2023/10/31 06:36:30;;;;;;;29.17;15.82;;;;;;;9.13;100.00;99982.13;6290676;22;20003;-96
2023/10/31 06:38:56;;;;;;;27.63;14.88;;;;;;;9.12;100.00;99981.22;6292175;22;20007;-96
2023/10/31 06:41:24;;;;;;;30.25;15.55;;;;;;;9.14;100.00;99970.84;6292145;22;20007;-96
2023/10/31 06:44:05;;;;;;;29.00;15.10;;;;;;;9.14;100.00;99987.34;6293966;22;20004;-96
2023/10/31 06:46:37;;;;;;;29.25;15.48;;;;;;;9.17;100.00;99990.00;6292057;22;20015;-96
2023/10/31 06:49:03;;;;;;;31.10;16.60;;;;;;;9.16;100.00;99989.97;6293413;22;20003;-96
2023/10/31 06:51:49;;;;;;;31.42;16.30;;;;;;;9.17;100.00;99989.13;6292327;22;19999;-96
2023/10/31 06:54:27;;;;;;;30.77;16.65;;;;;;;9.20;100.00;99987.44;6286031;22;19999;-96
2023/10/31 06:57:01;;;;;;;32.33;17.75;;;;;;;9.20;100.00;99997.84;6290762;22;20455;-96
2023/10/31 06:59:31;;;;;;;31.65;17.35;;;;;;;9.20;100.00;99996.97;6293452;22;20003;-96
2023/10/31 07:02:01;;;;;;;33.25;17.30;;;;;;;9.25;100.00;100002.22;6287626;22;20007;-96
2023/10/31 07:04:29;;;;;;;32.30;17.70;;;;;;;9.25;100.00;100004.81;6291789;22;20560;-96
2023/10/31 07:07:01;;;;;;;32.08;16.83;;;;;;;9.22;100.00;100009.16;6291609;22;20007;-96
2023/10/31 07:09:37;;;;;;;35.08;17.33;;;;;;;9.23;100.00;100008.28;6287978;22;20011;-96
2023/10/31 07:12:03;;;;;;;30.85;16.30;;;;;;;9.28;100.00;100004.88;6290299;22;20042;-96
2023/10/31 07:14:47;;;;;;;28.83;16.55;;;;;;;9.25;100.00;100007.44;6290802;22;20003;-96
2023/10/31 07:17:21;;;;;;;33.50;17.60;;;;;;;9.22;100.00;100011.75;6286255;22;20004;-96
2023/10/31 07:22:50;;;;;;;28.45;15.27;;;;;;;9.27;100.00;100016.09;6284925;22;20461;-96
2023/10/31 07:25:27;;;;;;;27.38;14.65;;;;;;;9.28;100.00;100016.13;6284569;22;20031;-96
2023/10/31 07:27:57;;;;;;;28.15;15.88;;;;;;;9.26;100.00;100028.25;6285592;22;20007;-96
2023/10/31 07:30:38;;;;;;;26.05;15.27;;;;;;;9.20;100.00;100016.03;6286295;22;20011;-96
2023/10/31 07:33:48;;;;;;;26.77;15.88;;;;;;;9.23;100.00;100020.41;6286699;22;20074;-96
2023/10/31 07:36:19;;;;;;;25.90;14.77;;;;;;;9.20;100.00;100028.16;6287009;22;20031;-96
2023/10/31 07:38:54;;;;;;;27.85;14.50;;;;;;;9.20;100.00;100025.56;6286279;22;20014;-96
2023/10/31 07:41:48;;;;;;;26.00;15.10;;;;;;;9.21;100.00;100035.09;6287842;22;20434;-96
2023/10/31 07:44:50;;;;;;;28.27;15.40;;;;;;;9.22;100.00;100032.53;6280151;22;20000;-96
2023/10/31 07:47:16;;;;;;;26.73;15.30;;;;;;;9.21;100.00;100025.56;6287596;22;20019;-96
2023/10/31 07:49:45;;;;;;;24.73;14.52;;;;;;;9.27;100.00;100029.09;6288919;22;20004;-96
2023/10/31 07:55:35;;;;;;;23.10;14.48;;;;;;;9.30;100.00;100030.03;6280155;22;20015;-96
2023/10/31 07:58:03;;;;;;;24.48;14.50;;;;;;;9.33;100.00;100040.50;6291447;22;20011;-96
2023/10/31 08:00:30;;;;;;;24.40;14.13;;;;;;;9.35;100.00;100036.19;6291234;22;20007;-96
2023/10/31 08:03:04;;;;;;;24.02;14.32;;;;;;;9.41;100.00;100038.00;6286590;22;20014;-96
2023/10/31 08:06:04;;;;;;;26.55;15.65;;;;;;;9.43;100.00;100040.63;6285640;22;20007;-96
2023/10/31 08:08:39;;;;;;;26.48;15.60;;;;;;;9.50;100.00;100043.34;6232834;22;20062;-96
2023/10/31 08:11:11;;;;;;;26.83;14.90;;;;;;;9.61;100.00;100045.25;6289231;22;20011;-96
2023/10/31 08:13:47;;;;;;;29.83;16.38;;;;;;;9.61;100.00;100048.69;6286992;22;20386;-96
2023/10/31 08:19:18;;;;;;;29.20;16.23;;;;;;;9.71;100.00;100049.72;6297954;22;20007;-96
2023/10/31 08:22:02;;;;;;;31.95;18.42;;;;;;;9.77;100.00;100062.81;6288162;22;20476;-96
2023/10/31 08:27:42;;;;;;;31.10;16.38;;;;;;;9.84;100.00;100059.44;6275660;22;20100;-96
2023/10/31 08:30:41;;;;;;;30.92;17.75;;;;;;;9.79;100.00;100053.31;6287465;22;20014;-96
2023/10/31 08:33:18;;;;;;;32.70;16.88;;;;;;;9.76;100.00;100061.03;6284793;22;19999;-96
2023/10/31 08:38:38;;;;;;;35.83;16.58;;;;;;;9.73;100.00;100063.59;6224345;23;20028;-96
2023/10/31 08:41:04;;;;;;;28.40;15.52;;;;;;;9.74;100.00;100065.38;6207396;23;20005;-96
2023/10/31 08:43:37;;;;;;;33.72;17.13;;;;;;;9.76;100.00;100071.44;6231159;23;20008;-96
2023/10/31 08:46:03;;;;;;;27.90;15.25;;;;;;;9.78;100.00;100074.97;6197821;23;20005;-96
2023/10/31 08:48:34;;;;;;;29.50;15.43;;;;;;;9.85;100.00;100076.81;6223007;23;20004;-96
2023/10/31 08:51:02;;;;;;;28.92;16.08;;;;;;;9.87;100.00;100088.09;6222905;23;20008;-96
2023/10/31 08:53:28;;;;;;;31.80;16.70;;;;;;;9.81;100.00;100092.34;6197355;23;20041;-96
2023/10/31 08:56:19;;;;;;;30.17;16.15;;;;;;;9.87;100.00;100100.25;6199927;23;20035;-96
2023/10/31 08:58:55;;;;;;;29.05;15.32;;;;;;;9.86;100.00;100104.59;6177554;23;20016;-96
2023/10/31 09:01:41;;;;;;;;;;;;;;;;;;;;;
2023/10/31 09:04:15;;;;;;;32.35;16.42;;;;;;;9.89;100.00;100114.13;6224279;23;20035;-96
2023/10/31 09:06:43;;;;;;;31.33;15.20;;;;;;;9.88;100.00;100112.41;6192475;23;20016;-96
2023/10/31 09:09:15;;;;;;;34.10;17.95;;;;;;;9.91;100.00;100118.50;6194249;23;20011;-96
2023/10/31 09:12:11;;;;;;;28.02;14.27;;;;;;;9.95;100.00;100121.16;6195180;23;20008;-96
2023/10/31 09:14:37;;;;;;;30.80;14.65;;;;;;;10.05;100.00;100125.63;6223401;23;20004;-96
2023/10/31 09:17:02;;;;;;;27.95;14.75;;;;;;;9.99;100.00;100126.41;6190708;23;20825;-96
2023/10/31 09:19:28;;;;;;;27.02;14.00;;;;;;;10.01;100.00;100129.06;6196005;22;20027;-96
2023/10/31 09:21:55;;;;;;;29.23;14.40;;;;;;;10.04;100.00;100135.19;6280613;22;20089;-96
2023/10/31 09:24:53;;;;;;;25.20;13.23;;;;;;;10.14;100.00;100136.19;6281909;22;20067;-96
2023/10/31 09:27:27;;;;;;;28.05;14.77;;;;;;;10.12;100.00;100137.03;6284741;22;20018;-96
2023/10/31 09:29:58;;;;;;;29.27;14.77;;;;;;;10.19;100.00;100141.47;6275307;22;20019;-96
2023/10/31 09:32:29;;;;;;;29.15;14.90;;;;;;;10.17;100.00;100148.38;6275713;22;20012;-96
2023/10/31 09:35:04;;;;;;;29.95;13.98;;;;;;;10.22;100.00;100159.72;6280711;22;20091;-96
2023/10/31 09:37:38;;;;;;;28.08;13.98;;;;;;;10.27;100.00;100164.16;6285458;22;19988;-96
2023/10/31 09:42:55;;;;;;;27.48;14.70;;;;;;;10.23;100.00;100170.16;6292344;22;20111;-96
2023/10/31 09:45:24;;;;;;;28.08;13.77;;;;;;;10.16;100.00;100164.84;6285017;22;20079;-96
2023/10/31 09:48:01;;;;;;;27.40;15.00;;;;;;;10.16;100.00;100183.06;6288596;22;20011;-96
2023/10/31 09:50:58;;;;;;;28.13;14.75;;;;;;;10.18;100.00;100171.84;6288166;22;20004;-96
2023/10/31 09:53:49;;;;;;;26.02;12.68;;;;;;;10.25;100.00;100184.09;6287552;22;20004;-96
2023/10/31 09:56:57;;;;;;;26.15;13.63;;;;;;;10.15;100.00;100178.72;6287707;22;20014;-96
2023/10/31 09:59:36;;;;;;;26.90;12.43;;;;;;;10.14;100.00;100185.66;6287227;22;20008;-96
2023/10/31 10:02:02;;;;;;;25.25;12.40;;;;;;;10.07;100.00;100187.28;6289360;22;20008;-96
2023/10/31 10:04:53;;;;;;;24.00;12.35;;;;;;;10.09;100.00;100190.81;6291195;22;20007;-96
2023/10/31 10:07:37;;;;;;;27.17;14.00;;;;;;;10.09;100.00;100196.00;6290235;22;20557;-96
2023/10/31 10:10:10;;;;;;;25.40;12.38;;;;;;;10.16;100.00;100196.97;6282930;22;20011;-96
2023/10/31 10:13:12;;;;;;;26.20;13.32;;;;;;;10.15;100.00;100200.41;6286785;22;20094;-96
2023/10/31 10:16:19;;;;;;;22.55;12.60;;;;;;;10.15;100.00;100210.81;6286727;22;20034;-96
2023/10/31 10:18:54;;;;;;;23.30;12.15;;;;;;;10.14;100.00;100222.09;6267153;22;20007;-96
2023/10/31 10:21:45;;;;;;;25.05;12.45;;;;;;;10.17;100.00;100221.28;6290185;22;20015;-96
2023/10/31 10:24:17;;;;;;;24.95;11.68;;;;;;;10.23;100.00;100219.63;6284533;22;20023;-96
2023/10/31 10:26:49;;;;;;;23.23;12.38;;;;;;;10.27;100.00;100220.56;6294888;22;20026;-96
2023/10/31 10:29:51;;;;;;;23.05;11.23;;;;;;;10.44;100.00;100218.22;6285657;22;20042;-96
2023/10/31 10:33:01;;;;;;;24.45;12.50;;;;;;;10.47;100.00;100225.19;6296797;22;20007;-96
2023/10/31 10:35:56;;;;;;;23.75;11.88;;;;;;;10.58;100.00;100234.03;6274675;22;20034;-96
2023/10/31 10:38:37;;;;;;;20.90;10.18;;;;;;;10.80;100.00;100240.41;6276343;22;20015;-96
2023/10/31 10:41:09;;;;;;;21.48;11.73;;;;;;;10.80;100.00;100243.00;6262982;22;20024;-96
2023/10/31 10:43:57;;;;;;;20.90;11.02;;;;;;;10.78;100.00;100242.13;6260507;22;20019;-96
2023/10/31 10:46:55;;;;;;;19.33;10.00;;;;;;;10.77;100.00;100242.97;6265160;22;20012;-96
2023/10/31 10:49:45;;;;;;;20.95;10.38;;;;;;;10.77;100.00;100250.78;6259750;22;20029;-96
2023/10/31 10:52:33;;;;;;;20.65;10.55;;;;;;;10.74;100.00;100253.38;6258941;22;19999;-96
2023/10/31 10:55:22;;;;;;;19.30;8.98;;;;;;;10.76;100.00;100269.88;6261599;22;20065;-96
2023/10/31 11:01:02;;;;;;;19.92;10.27;;;;;;;10.69;100.00;100252.41;6283051;22;20003;-96
2023/10/31 11:03:35;;;;;;;20.02;11.02;;;;;;;10.66;100.00;100261.09;6251652;22;20057;-96
2023/10/31 11:06:05;;;;;;;19.75;10.30;;;;;;;10.67;100.00;100251.53;6252599;22;20004;-96
2023/10/31 11:08:42;;;;;;;21.88;11.20;;;;;;;10.66;100.00;100253.28;6250989;22;20004;-96
2023/10/31 11:11:15;;;;;;;17.58;10.00;;;;;;;10.68;100.00;100250.69;6253201;22;20011;-96
2023/10/31 11:13:44;;;;;;;20.73;10.90;;;;;;;10.70;100.00;100255.06;6251811;22;19999;-96
2023/10/31 11:16:27;;;;;;;20.27;10.25;;;;;;;10.73;100.00;100260.31;6252738;22;20003;-96
2023/10/31 11:18:59;;;;;;;21.00;11.05;;;;;;;10.71;100.00;100251.59;6251031;22;20083;-96
2023/10/31 11:21:44;;;;;;;;;;;;;;;;;;;;;
2023/10/31 11:24:22;;;;;;;20.77;11.93;;;;;;;10.70;100.00;100265.50;6277000;22;20497;-96
2023/10/31 11:27:01;;;;;;;23.65;11.88;;;;;;;10.70;100.00;100264.59;6280604;22;19998;-96
2023/10/31 11:29:35;;;;;;;20.75;11.70;;;;;;;10.77;100.00;100271.63;6254986;22;20035;-96
2023/10/31 11:32:03;;;;;;;20.42;10.65;;;;;;;10.74;100.00;100274.22;6276557;22;20038;-96
2023/10/31 11:34:51;;;;;;;20.67;10.50;;;;;;;10.79;100.00;100272.56;6272234;22;20007;-96
2023/10/31 11:38:09;;;;;;;21.13;10.43;;;;;;;10.72;100.00;100270.72;6248875;22;20246;-96
2023/10/31 11:40:58;;;;;;;18.88;10.07;;;;;;;10.74;100.00;100269.84;6270792;22;20377;-96
2023/10/31 11:43:39;;;;;;;19.17;10.15;;;;;;;10.77;100.00;100267.28;6254242;22;20090;-96
2023/10/31 11:46:06;;;;;;;20.95;10.52;;;;;;;10.79;100.00;100262.13;6310665;22;20007;-96
2023/10/31 11:49:05;;;;;;;19.77;10.88;;;;;;;10.86;100.00;100266.56;6320518;22;20067;-96
2023/10/31 11:51:59;;;;;;;17.53;10.47;;;;;;;10.93;100.00;100259.69;6299334;22;20015;-96
2023/10/31 11:54:41;;;;;;;20.45;10.60;;;;;;;10.91;100.00;100257.06;6294432;22;20086;-96
2023/10/31 11:57:29;;;;;;;18.23;9.80;;;;;;;11.03;100.00;100263.28;6310966;22;20003;-96
2023/10/31 12:00:15;;;;;;;;;;;;;;;;;;;;;
2023/10/31 12:02:57;;;;;;;16.15;9.32;;;;;;;11.14;100.00;100262.56;6316188;22;20105;-96
2023/10/31 12:05:52;;;;;;;16.55;9.45;;;;;;;11.27;100.00;100263.56;6287429;22;20007;-96
2023/10/31 12:08:40;;;;;;;17.63;8.82;;;;;;;11.49;100.00;100259.47;6308072;22;20011;-96
2023/10/31 12:11:36;;;;;;;14.48;8.45;;;;;;;11.69;100.00;100260.50;6287766;22;20026;-96
2023/10/31 12:14:09;;;;;;;14.80;8.05;;;;;;;11.78;100.00;100268.44;6282555;22;19999;-96
2023/10/31 12:17:01;;;;;;;14.98;8.35;;;;;;;11.85;100.00;100270.25;6284637;22;20007;-96
2023/10/31 12:19:54;;;;;;;13.25;8.00;;;;;;;11.96;100.00;100262.53;6310889;22;19999;-96
2023/10/31 12:22:28;;;;;;;11.25;7.00;;;;;;;11.99;100.00;100266.06;6286977;22;20003;-96
2023/10/31 12:25:09;;;;;;;11.30;6.60;;;;;;;12.09;100.00;100260.91;6288722;22;20022;-96
2023/10/31 12:27:51;;;;;;;11.52;6.35;;;;;;;12.21;100.00;100273.16;6286578;22;20091;-96
2023/10/31 12:31:10;;;;;;;;;;;;;;;;;;;;;
2023/10/31 12:34:04;;;;;;;9.52;5.75;;;;;;;12.10;100.00;100271.34;6321914;22;20004;-96
2023/10/31 12:36:35;;;;;;;8.55;5.22;;;;;;;12.03;100.00;100268.69;6319323;22;19999;-96
2023/10/31 12:39:01;;;;;;;8.63;5.80;;;;;;;12.00;100.00;100274.75;6295517;22;20059;-96
2023/10/31 12:42:03;;;;;;;10.95;5.88;;;;;;;12.02;100.00;100282.59;6292974;22;20068;-96
2023/10/31 12:44:38;;;;;;;8.68;5.68;;;;;;;12.00;100.00;100286.06;6291264;22;20072;-96
2023/10/31 12:47:08;;;;;;;9.48;5.97;;;;;;;11.98;100.00;100282.56;6291727;22;20025;-96
2023/10/31 12:50:25;;;;;;;10.00;5.35;;;;;;;12.00;100.00;100283.44;6318170;22;20341;-96
2023/10/31 12:53:03;;;;;;;9.48;4.88;;;;;;;12.05;100.00;100286.13;6268698;22;20003;-96